createdAt,value
2023-02-15T00:03:28.797Z,9.70
2023-02-15T00:07:32.317Z,11.07
2023-02-15T00:11:40.678Z,11.70
2023-02-15T00:15:43.684Z,10.52
2023-02-15T00:19:46.619Z,10.23
2023-02-15T00:23:49.249Z,12.77
2023-02-15T00:27:52.137Z,8.57
2023-02-15T00:31:55.280Z,9.85
2023-02-15T00:36:01.903Z,9.40
2023-02-15T00:40:05.475Z,15.35
2023-02-15T00:44:09.388Z,10.60
2023-02-15T00:48:12.131Z,12.30
2023-02-15T00:52:14.936Z,11.50
2023-02-15T00:56:17.863Z,13.25
2023-02-15T01:00:21.271Z,14.18
2023-02-15T01:04:24.177Z,15.00
2023-02-15T01:08:27.152Z,14.52
2023-02-15T01:12:29.956Z,15.25
2023-02-15T01:16:32.805Z,17.65
2023-02-15T01:20:39.905Z,13.25
2023-02-15T01:24:43.426Z,11.75
2023-02-15T01:28:46.974Z,11.45
2023-02-15T01:32:49.752Z,13.48
2023-02-15T01:36:53.309Z,11.60
2023-02-15T01:41:16.013Z,14.50
2023-02-15T01:45:26.365Z,11.43
2023-02-15T01:49:29.503Z,14.35
2023-02-15T01:53:45.263Z,13.00
2023-02-15T01:57:50.413Z,12.50
2023-02-15T02:01:58.376Z,13.90
2023-02-15T02:06:01.335Z,14.85
2023-02-15T02:10:05.929Z,14.00
2023-02-15T02:14:09.701Z,11.23
2023-02-15T02:18:41.045Z,10.90
2023-02-15T02:22:43.777Z,9.73
2023-02-15T02:27:07.451Z,10.68
2023-02-15T02:31:38.210Z,10.48
2023-02-15T02:35:53.700Z,10.00
2023-02-15T02:40:20.110Z,8.35
2023-02-15T02:48:33.975Z,9.60
2023-02-15T02:52:48.860Z,8.88
2023-02-15T02:56:53.244Z,10.40
2023-02-15T03:01:23.522Z,13.70
2023-02-15T03:05:30.209Z,20.20
2023-02-15T03:09:44.359Z,18.42
2023-02-15T03:13:50.408Z,17.05
2023-02-15T03:17:58.744Z,17.27
2023-02-15T03:22:12.418Z,19.60
2023-02-15T03:26:15.329Z,20.73
2023-02-15T03:30:23.550Z,16.88
2023-02-15T03:38:50.659Z,17.67
2023-02-15T03:43:27.007Z,16.65
2023-02-15T03:51:40.484Z,11.73
2023-02-15T03:55:46.938Z,12.77
2023-02-15T04:00:08.345Z,11.40
2023-02-15T04:04:21.532Z,13.50
2023-02-15T04:08:44.265Z,12.15
2023-02-15T04:12:47.084Z,11.73
2023-02-15T04:16:50.866Z,9.98
2023-02-15T04:21:12.347Z,12.85
2023-02-15T04:25:15.179Z,11.05
2023-02-15T04:29:18.229Z,9.93
2023-02-15T04:33:21.017Z,11.00
2023-02-15T04:37:23.798Z,8.40
2023-02-15T04:41:26.582Z,9.07
2023-02-15T04:45:29.638Z,12.27
2023-02-15T04:49:32.428Z,10.50
2023-02-15T04:53:35.667Z,9.48
2023-02-15T04:57:38.452Z,9.93
2023-02-15T05:01:41.359Z,7.13
2023-02-15T05:05:44.230Z,11.38
2023-02-15T05:09:47.113Z,14.18
2023-02-15T05:13:49.809Z,16.48
2023-02-15T05:17:52.732Z,17.02
2023-02-15T05:21:55.775Z,11.88
2023-02-15T05:26:17.111Z,5.85
2023-02-15T05:30:20.059Z,12.73
2023-02-15T05:34:22.935Z,8.38
2023-02-15T05:38:25.859Z,9.18
2023-02-15T05:42:28.577Z,13.27
2023-02-15T05:46:31.373Z,11.20
2023-02-15T05:50:34.214Z,14.30
2023-02-15T05:54:36.990Z,13.45
2023-02-15T05:58:42.155Z,11.13
2023-02-15T06:02:44.974Z,10.25
2023-02-15T06:06:50.990Z,7.70
2023-02-15T06:10:53.851Z,7.65
2023-02-15T06:14:56.769Z,7.22
2023-02-15T06:19:02.362Z,11.35
2023-02-15T06:23:05.303Z,8.90
2023-02-15T06:27:07.977Z,6.70
2023-02-15T06:31:11.400Z,7.00
2023-02-15T06:35:16.078Z,8.55
2023-02-15T06:39:19.273Z,9.80
2023-02-15T06:43:22.305Z,11.07
2023-02-15T06:47:25.021Z,15.20
2023-02-15T06:51:27.833Z,15.02
2023-02-15T06:55:31.051Z,11.55
2023-02-15T06:59:34.061Z,13.50
2023-02-15T07:03:37.200Z,13.55
2023-02-15T07:07:40.915Z,14.98
2023-02-15T07:12:04.388Z,14.70
2023-02-15T07:16:07.211Z,22.02
2023-02-15T07:20:13.581Z,14.38
2023-02-15T07:24:16.583Z,13.95
2023-02-15T07:28:19.551Z,14.27
2023-02-15T07:32:25.915Z,14.00
2023-02-15T07:36:29.150Z,10.32
2023-02-15T07:40:32.337Z,17.85
2023-02-15T07:44:35.400Z,24.80
2023-02-15T07:48:39.272Z,25.23
2023-02-15T07:52:42.408Z,55.13
2023-02-15T07:56:45.324Z,33.47
2023-02-15T08:00:57.345Z,38.78
2023-02-15T08:05:00.335Z,29.08
2023-02-15T08:09:09.195Z,21.50
2023-02-15T08:13:12.142Z,25.55
2023-02-15T08:17:15.011Z,30.55
2023-02-15T08:21:17.755Z,37.58
2023-02-15T08:25:20.485Z,35.90
2023-02-15T08:29:25.781Z,52.35
2023-02-15T08:33:29.471Z,72.18
2023-02-15T08:37:32.366Z,55.58
2023-02-15T08:41:37.023Z,43.42
2023-02-15T08:45:39.865Z,46.63
2023-02-15T08:49:42.640Z,42.10
2023-02-15T08:53:50.131Z,44.47
2023-02-15T08:57:53.201Z,42.78
2023-02-15T09:01:56.364Z,30.52
2023-02-15T09:06:02.206Z,23.27
2023-02-15T09:10:05.835Z,16.00
2023-02-15T09:14:15.088Z,19.27
2023-02-15T09:18:18.277Z,16.17
2023-02-15T09:22:21.393Z,19.55
2023-02-15T09:26:25.565Z,21.50
2023-02-15T09:30:28.544Z,22.02
2023-02-15T09:34:34.020Z,20.30
2023-02-15T09:38:37.539Z,27.88
2023-02-15T09:42:49.511Z,22.75
2023-02-15T09:47:28.553Z,16.17
2023-02-15T09:51:40.565Z,19.05
2023-02-15T09:56:21.142Z,11.98
2023-02-15T10:00:24.557Z,10.88
2023-02-15T10:04:37.104Z,11.38
2023-02-15T10:08:51.921Z,11.75
2023-02-15T10:13:04.734Z,11.82
2023-02-15T10:17:19.646Z,11.60
2023-02-15T10:21:48.654Z,12.35
2023-02-15T10:26:15.149Z,10.32
2023-02-15T10:30:35.483Z,11.27
2023-02-15T10:35:01.761Z,11.57
2023-02-15T10:39:31.899Z,16.92
2023-02-15T10:43:47.278Z,14.70
2023-02-15T10:48:01.475Z,12.70
2023-02-15T10:52:12.177Z,11.80
2023-02-15T10:56:36.877Z,13.20
2023-02-15T11:01:05.264Z,10.50
2023-02-15T11:05:29.831Z,13.20
2023-02-15T11:09:50.375Z,11.45
2023-02-15T11:14:02.359Z,10.25
2023-02-15T11:18:33.883Z,12.50
2023-02-15T11:22:37.199Z,9.85
2023-02-15T11:26:56.511Z,11.63
2023-02-15T11:31:04.673Z,9.80
2023-02-15T11:35:28.903Z,9.10
2023-02-15T11:39:33.166Z,7.97
2023-02-15T11:43:52.762Z,8.52
2023-02-15T11:47:56.764Z,10.23
2023-02-15T11:52:03.128Z,10.82
2023-02-15T11:56:13.583Z,14.18
2023-02-15T12:00:41.719Z,9.50
2023-02-15T12:04:53.654Z,9.10
2023-02-15T12:09:21.935Z,9.23
2023-02-15T12:13:26.061Z,12.13
2023-02-15T12:17:41.469Z,8.73
2023-02-15T12:21:44.853Z,8.52
2023-02-15T12:25:55.284Z,7.82
2023-02-15T12:30:20.993Z,7.43
2023-02-15T12:34:33.761Z,7.82
2023-02-15T12:38:37.447Z,9.27
2023-02-15T12:42:45.657Z,10.80
2023-02-15T12:47:17.275Z,10.13
2023-02-15T12:51:20.114Z,10.75
2023-02-15T12:55:27.562Z,9.10
2023-02-15T12:59:30.390Z,9.13
2023-02-15T13:03:34.140Z,8.88
2023-02-15T13:07:38.473Z,11.25
2023-02-15T13:11:43.802Z,12.63
2023-02-15T13:15:51.954Z,10.68
2023-02-15T13:19:55.571Z,11.93
2023-02-15T13:24:03.720Z,11.45
2023-02-15T13:28:08.120Z,11.57
2023-02-15T13:32:30.005Z,11.85
2023-02-15T13:36:44.390Z,11.23
2023-02-15T13:41:05.281Z,11.05
2023-02-15T13:45:33.430Z,14.38
2023-02-15T13:50:07.080Z,13.77
2023-02-15T13:54:28.347Z,10.15
2023-02-15T13:58:34.009Z,16.52
2023-02-15T14:02:50.122Z,10.20
2023-02-15T14:07:11.762Z,11.20
2023-02-15T14:11:23.674Z,8.93
2023-02-15T14:15:47.885Z,9.85
2023-02-15T14:20:12.563Z,11.23
2023-02-15T14:24:30.532Z,9.90
2023-02-15T14:28:44.294Z,9.65
2023-02-15T14:32:57.444Z,8.82
2023-02-15T14:37:00.813Z,9.05
2023-02-15T14:41:08.799Z,10.63
2023-02-15T14:45:33.269Z,9.88
2023-02-15T14:49:39.111Z,8.10
2023-02-15T14:53:43.208Z,11.50
2023-02-15T14:57:59.416Z,9.95
2023-02-15T15:02:10.233Z,11.02
2023-02-15T15:06:30.350Z,14.52
2023-02-15T15:10:47.707Z,10.02
2023-02-15T15:14:51.952Z,10.13
2023-02-15T15:18:56.073Z,10.95
2023-02-15T15:23:41.644Z,14.30
2023-02-15T15:27:55.474Z,11.50
2023-02-15T15:32:02.366Z,13.60
2023-02-15T15:36:42.779Z,11.05
2023-02-15T15:41:08.143Z,13.75
2023-02-15T15:45:30.982Z,15.67
2023-02-15T15:49:40.190Z,12.73
2023-02-15T15:53:54.306Z,12.15
2023-02-15T15:58:04.233Z,12.38
2023-02-15T16:02:12.654Z,20.42
2023-02-15T16:06:26.688Z,10.88
2023-02-15T16:10:33.230Z,22.67
2023-02-15T16:18:43.376Z,13.30
2023-02-15T16:23:04.808Z,16.73
2023-02-15T16:27:35.013Z,16.13
2023-02-15T16:31:37.821Z,14.82
2023-02-15T16:36:04.660Z,10.90
2023-02-15T16:40:26.476Z,11.77
2023-02-15T16:44:33.905Z,12.88
2023-02-15T16:48:42.716Z,10.82
2023-02-15T16:52:46.199Z,10.35
2023-02-15T16:56:49.761Z,11.50
2023-02-15T17:00:57.401Z,8.88
2023-02-15T17:05:12.625Z,10.20
2023-02-15T17:09:23.363Z,10.23
2023-02-15T17:13:27.341Z,9.27
2023-02-15T17:17:32.637Z,10.48
2023-02-15T17:21:42.627Z,8.27
2023-02-15T17:25:45.371Z,12.25
2023-02-15T17:29:52.895Z,12.15
2023-02-15T17:33:57.629Z,8.73
2023-02-15T17:38:05.549Z,12.20
2023-02-15T17:42:08.361Z,12.85
2023-02-15T17:46:11.167Z,15.18
2023-02-15T17:50:25.586Z,13.48
2023-02-15T17:54:47.616Z,15.77
2023-02-15T17:58:50.320Z,12.73
2023-02-15T18:03:12.304Z,12.45
2023-02-15T18:07:35.648Z,14.25
2023-02-15T18:11:38.432Z,10.32
2023-02-15T18:15:41.288Z,10.95
2023-02-15T18:19:46.277Z,10.65
2023-02-15T18:23:49.045Z,12.05
2023-02-15T18:27:54.931Z,14.32
2023-02-15T18:31:59.521Z,12.60
2023-02-15T18:36:04.342Z,13.38
2023-02-15T18:40:16.822Z,11.10
2023-02-15T18:44:19.620Z,13.57
2023-02-15T18:48:22.891Z,12.63
2023-02-15T18:52:31.725Z,11.57
2023-02-15T18:56:35.489Z,12.25
2023-02-15T19:00:38.449Z,11.75
2023-02-15T19:04:41.948Z,10.02
2023-02-15T19:08:47.227Z,14.05
2023-02-15T19:12:51.268Z,36.08
2023-02-15T19:16:55.327Z,10.45
2023-02-15T19:20:58.168Z,17.75
2023-02-15T19:25:03.409Z,19.10
2023-02-15T19:29:06.386Z,14.55
2023-02-15T19:33:18.924Z,13.15
2023-02-15T19:37:26.518Z,13.52
2023-02-15T19:41:34.506Z,16.02
2023-02-15T19:45:37.443Z,15.90
2023-02-15T19:49:40.413Z,12.90
2023-02-15T19:53:43.596Z,11.68
2023-02-15T19:57:46.357Z,11.90
2023-02-15T20:01:49.259Z,20.10
2023-02-15T20:05:52.159Z,18.38
2023-02-15T20:09:55.549Z,10.82
2023-02-15T20:13:58.984Z,11.73
2023-02-15T20:18:04.238Z,9.98
2023-02-15T20:22:11.255Z,11.65
2023-02-15T20:26:18.233Z,11.35
2023-02-15T20:30:24.212Z,10.88
2023-02-15T20:34:27.087Z,9.10
2023-02-15T20:38:32.596Z,9.52
2023-02-15T20:42:35.477Z,10.48
2023-02-15T20:46:38.712Z,9.82
2023-02-15T20:50:41.401Z,12.35
2023-02-15T20:54:44.734Z,10.43
2023-02-15T20:58:47.602Z,11.13
2023-02-15T21:02:56.668Z,14.05
2023-02-15T21:07:00.712Z,16.98
2023-02-15T21:11:03.866Z,15.80
2023-02-15T21:15:28.371Z,12.45
2023-02-15T21:19:31.609Z,12.15
2023-02-15T21:23:38.079Z,11.70
2023-02-15T21:27:41.164Z,10.80
2023-02-15T21:31:44.552Z,12.30
2023-02-15T21:35:51.037Z,10.63
2023-02-15T21:39:53.806Z,12.07
2023-02-15T21:44:14.869Z,16.70
2023-02-15T21:48:17.696Z,13.85
2023-02-15T21:52:23.826Z,12.23
2023-02-15T21:56:27.131Z,15.45
2023-02-15T22:00:30.905Z,14.75
2023-02-15T22:04:33.672Z,17.83
2023-02-15T22:08:36.476Z,17.60
2023-02-15T22:12:41.192Z,15.25
2023-02-15T22:16:43.910Z,16.42
2023-02-15T22:20:46.892Z,13.05
2023-02-15T22:24:50.249Z,13.27
2023-02-15T22:28:53.450Z,13.80
2023-02-15T22:32:57.631Z,13.98
2023-02-15T22:37:00.415Z,12.70
2023-02-15T22:41:04.958Z,22.17
2023-02-15T22:45:21.011Z,20.30
2023-02-15T22:49:25.684Z,16.60
2023-02-15T22:53:28.454Z,14.55
2023-02-15T22:57:32.817Z,13.82
2023-02-15T23:01:38.071Z,23.88
2023-02-15T23:05:40.859Z,28.77
2023-02-15T23:09:44.330Z,23.77
2023-02-15T23:13:49.778Z,16.65
2023-02-15T23:17:52.544Z,15.95
2023-02-15T23:21:55.508Z,16.25
2023-02-15T23:25:58.792Z,17.70
2023-02-15T23:30:06.380Z,17.83
2023-02-15T23:34:25.855Z,20.75
2023-02-15T23:38:30.667Z,16.38
2023-02-15T23:42:35.978Z,19.08
2023-02-15T23:46:44.898Z,26.75
2023-02-15T23:50:47.844Z,28.00
2023-02-15T23:54:50.706Z,23.58
2023-02-15T23:58:53.709Z,22.63
